Skip to main content

Setúbal

ID 1210770 · 38.5485, -8.8908 map

Latest reading · 2026-05-09 19:00 (Europe/Lisbon)

Temperature
16.5 °C
Humidity
77 %
Pressure
1,007.8 hPa
Precipitation
0.3 mm
Radiation
755 W/m²
Wind speed
11.9 km/h
Wind direction
SW · South-west

24-hour history

Time (Europe/Lisbon) Temp Humidity Pressure Rain Wind Dir
2026-05-09 19:00 16.5 °C 77 % 1,007.8 0.3 mm 11.9 km/h SW
2026-05-09 18:00 17.2 °C 73 % 1,007.3 0.0 mm 11.9 km/h SW
2026-05-09 17:00 16.6 °C 80 % 1,006.7 1.7 mm 15.8 km/h SW
2026-05-09 16:00 17.7 °C 81 % 1,006.4 0.0 mm 20.5 km/h S
2026-05-09 15:00 15.2 °C 84 % 1,006.3 6.2 mm 10.8 km/h SW
2026-05-09 14:00 18.3 °C 68 % 1,005.9 0.0 mm 18.7 km/h S
2026-05-09 13:00 18.5 °C 68 % 1,005.5 0.0 mm 19.4 km/h SW
2026-05-09 12:00 18.1 °C 70 % 1,005.0 0.0 mm 16.2 km/h SW
2026-05-09 11:00 16.3 °C 79 % 1,004.1 0.0 mm 10.4 km/h SW
2026-05-09 10:00 15.5 °C 82 % 1,003.5 0.0 mm 15.5 km/h S
2026-05-09 09:00 13.8 °C 88 % 1,003.5 0.0 mm 6.8 km/h S
2026-05-09 08:00 13.1 °C 90 % 1,003.4 0.7 mm 8.6 km/h S
2026-05-09 07:00 13.4 °C 89 % 1,003.3 2.8 mm 10.8 km/h SE
2026-05-09 06:00 13.9 °C 87 % 1,003.3 0.7 mm 13.0 km/h S
2026-05-09 05:00 13.9 °C 85 % 1,003.8 0.0 mm 7.6 km/h SE
2026-05-09 04:00 13.8 °C 85 % 1,004.5 0.1 mm 2.2 km/h E
2026-05-09 03:00 14.3 °C 81 % 1,004.9 0.1 mm 12.2 km/h S
2026-05-09 02:00 14.5 °C 78 % 1,005.8 0.0 mm 11.2 km/h S
2026-05-09 01:00 15.0 °C 75 % 1,006.3 0.0 mm 11.5 km/h SE
2026-05-09 00:00 15.4 °C 73 % 1,006.4 0.0 mm 16.9 km/h S
2026-05-08 23:00 15.5 °C 77 % 1,006.0 0.0 mm 22.0 km/h S
2026-05-08 22:00 15.2 °C 82 % 1,005.6 0.1 mm 15.5 km/h S
2026-05-08 21:00 15.9 °C 77 % 1,006.5 0.1 mm 14.8 km/h SE
2026-05-08 20:00 16.8 °C 71 % 1,006.7 0.0 mm 11.5 km/h S